Time;durP1;ratioP1;P1;durP2;ratioP2;P2;SDS_P1;SDS_P2;PMS_P1;PMS_P2;Temp;Humidity;BMP_temperature;BMP_pressure;BME280_temperature;BME280_humidity;BME280_pressure;Samples;Min_cycle;Max_cycle;Signal;HPM_P1;HPM_P2
2024/01/23 00:00:08;;;;;;;;;3.33;3.00;;;;;10.76;61.66;102162.91;4995561;28;45856;-81
2024/01/23 00:02:34;;;;;;;;;5.00;4.00;;;;;10.54;62.18;102135.19;4996205;28;44916;-82
2024/01/23 00:04:59;;;;;;;;;2.67;1.00;;;;;10.76;61.90;102173.53;4995902;28;45153;-81
2024/01/23 00:07:25;;;;;;;;;4.00;2.00;;;;;10.76;62.10;102176.22;4995189;28;44841;-82
2024/01/23 00:09:50;;;;;;;;;3.00;2.00;;;;;10.06;62.14;102057.97;4993772;28;45460;-82
2024/01/23 00:12:15;;;;;;;;;3.00;2.67;;;;;10.41;62.17;102136.16;4993020;28;45134;-79
2024/01/23 00:14:41;;;;;;;;;3.00;2.00;;;;;10.51;62.22;102158.50;4993471;28;45008;-80
2024/01/23 00:17:06;;;;;;;;;3.00;1.33;;;;;10.68;62.75;102191.88;5015341;28;45200;-80
2024/01/23 00:19:31;;;;;;;;;1.00;1.00;;;;;10.50;62.35;102176.25;4994010;28;45494;-82
2024/01/23 00:21:57;;;;;;;;;2.00;1.33;;;;;10.63;62.78;102195.72;4993582;28;45447;-78
2024/01/23 00:24:23;;;;;;;;;4.00;1.67;;;;;10.46;62.89;102165.97;4996164;28;45976;-81
2024/01/23 00:26:48;;;;;;;;;4.00;2.00;;;;;10.49;63.28;102184.34;4996271;28;45137;-83
2024/01/23 00:29:15;;;;;;;;;3.00;2.00;;;;;10.24;63.11;102150.66;4994870;28;45008;-82
2024/01/23 00:31:40;;;;;;;;;2.67;2.00;;;;;10.63;62.73;102222.31;4994601;28;45035;-81
2024/01/23 00:34:06;;;;;;;;;2.00;2.00;;;;;10.60;63.07;102217.19;4994716;28;45096;-79
2024/01/23 00:36:32;;;;;;;;;2.33;1.33;;;;;10.58;63.36;102223.56;5010059;28;45479;-83
2024/01/23 00:38:57;;;;;;;;;4.33;2.67;;;;;9.91;63.84;102121.94;5019805;28;45178;-80
2024/01/23 00:41:23;;;;;;;;;2.00;2.00;;;;;10.56;63.55;102223.69;5021514;28;45012;-80
2024/01/23 00:43:48;;;;;;;;;6.00;6.00;;;;;10.22;63.68;102179.16;5021210;28;45019;-81
2024/01/23 00:46:15;;;;;;;;;3.33;3.33;;;;;10.64;63.75;102242.63;5022164;28;45241;-79
2024/01/23 00:48:40;;;;;;;;;5.00;2.00;;;;;10.69;63.56;102262.72;5024601;28;45133;-83
2024/01/23 00:51:06;;;;;;;;;5.00;1.67;;;;;10.65;63.76;102236.34;5002155;28;45031;-81
2024/01/23 00:53:31;;;;;;;;;2.33;1.33;;;;;10.76;63.46;102237.38;5006916;28;45073;-81
2024/01/23 00:55:58;;;;;;;;;7.00;3.67;;;;;10.26;63.51;102172.69;5013347;28;45063;-80
2024/01/23 00:58:24;;;;;;;;;1.00;0.33;;;;;10.87;62.92;102261.44;5017167;28;45232;-80
2024/01/23 01:00:50;;;;;;;;;1.33;1.00;;;;;10.75;63.08;102241.88;5016989;28;45083;-80
2024/01/23 01:03:15;;;;;;;;;2.67;2.67;;;;;10.90;62.76;102255.91;5016710;28;45141;-84
2024/01/23 01:05:41;;;;;;;;;5.00;1.00;;;;;10.76;62.77;102235.59;5016575;28;45080;-82
2024/01/23 01:08:07;;;;;;;;;5.67;1.67;;;;;10.91;63.43;102254.94;5014399;28;46258;-82
2024/01/23 01:10:32;;;;;;;;;5.33;2.00;;;;;10.87;63.45;102269.41;4999340;28;45082;-82
2024/01/23 01:12:58;;;;;;;;;5.67;3.00;;;;;10.08;63.56;102145.53;5014771;28;44916;-82
2024/01/23 01:15:23;;;;;;;;;2.00;1.00;;;;;10.36;64.33;102200.31;5017858;28;44928;-81
2024/01/23 01:17:49;;;;;;;;;2.33;2.00;;;;;10.27;64.17;102200.97;4996692;28;45759;-81
2024/01/23 01:20:15;;;;;;;;;3.33;3.00;;;;;10.36;64.41;102213.59;4997431;28;44975;-80
2024/01/23 01:22:41;;;;;;;;;2.67;2.00;;;;;10.59;64.85;102276.66;4996346;28;45118;-80
2024/01/23 01:25:08;;;;;;;;;5.67;1.67;;;;;10.43;64.80;102245.94;4994280;28;45159;-82
2024/01/23 01:27:34;;;;;;;;;3.33;2.00;;;;;10.30;64.47;102230.84;4992290;28;46608;-83
2024/01/23 01:30:00;;;;;;;;;5.67;3.67;;;;;10.17;64.74;102210.47;4993427;28;45310;-84
2024/01/23 01:32:25;;;;;;;;;2.33;2.00;;;;;10.42;64.50;102250.41;4991657;28;45432;-85
2024/01/23 01:34:50;;;;;;;;;3.33;1.33;;;;;10.52;64.60;102283.38;4994692;28;45281;-83
2024/01/23 01:37:16;;;;;;;;;2.33;2.33;;;;;10.55;65.01;102280.50;4992592;28;45316;-82
2024/01/23 01:39:41;;;;;;;;;4.00;3.00;;;;;10.50;64.47;102279.97;4994587;28;44995;-84
2024/01/23 01:42:06;;;;;;;;;3.00;2.00;;;;;10.50;64.84;102289.75;4994577;28;45109;-82
2024/01/23 01:44:33;;;;;;;;;2.67;1.00;;;;;10.21;65.16;102242.09;4993044;28;45543;-79
2024/01/23 01:46:59;;;;;;;;;2.00;2.00;;;;;10.50;65.15;102297.72;4991902;28;45242;-77
2024/01/23 01:49:25;;;;;;;;;1.00;1.00;;;;;10.54;64.92;102308.03;4998979;28;44894;-80
2024/01/23 01:51:52;;;;;;;;;2.33;1.00;;;;;10.19;64.97;102238.66;5004975;28;45294;-83
2024/01/23 01:54:19;;;;;;;;;1.00;1.00;;;;;9.99;65.07;102209.91;5012648;28;45304;-81
2024/01/23 01:56:45;;;;;;;;;4.00;2.33;;;;;10.32;64.89;102282.06;5016808;28;45257;-80
2024/01/23 01:59:10;;;;;;;;;3.67;2.00;;;;;10.44;65.07;102301.66;5014762;28;45022;-80
2024/01/23 02:01:35;;;;;;;;;1.33;1.33;;;;;10.43;65.29;102305.28;4996398;28;45130;-80
2024/01/23 02:04:01;;;;;;;;;4.33;2.00;;;;;10.00;64.97;102243.50;5013102;28;45094;-81
2024/01/23 02:06:27;;;;;;;;;1.00;1.00;;;;;10.36;64.70;102306.66;5020539;28;46754;-81
2024/01/23 02:08:54;;;;;;;;;4.00;4.00;;;;;10.21;64.63;102274.00;5014549;28;45007;-82
2024/01/23 02:11:20;;;;;;;;;3.00;2.00;;;;;10.08;64.65;102259.81;4996479;28;44952;-80
2024/01/23 02:13:46;;;;;;;;;2.33;1.00;;;;;10.20;64.89;102306.78;4994759;28;44939;-82
2024/01/23 02:16:11;;;;;;;;;1.00;1.00;;;;;10.33;65.23;102336.94;5014007;28;45129;-80
2024/01/23 02:18:37;;;;;;;;;3.00;2.00;;;;;10.29;65.40;102323.97;5014516;28;44951;-80
2024/01/23 02:21:02;;;;;;;;;3.00;3.00;;;;;10.26;65.51;102324.19;4996638;28;45131;-79
2024/01/23 02:23:29;;;;;;;;;3.00;2.00;;;;;10.23;65.67;102313.75;5014238;28;45080;-78
2024/01/23 02:25:55;;;;;;;;;3.00;2.00;;;;;10.25;65.37;102331.31;4993316;28;45450;-82
2024/01/23 02:28:21;;;;;;;;;3.33;2.33;;;;;9.86;65.00;102260.41;4987534;28;45435;-76
2024/01/23 02:30:46;;;;;;;;;2.33;2.00;;;;;10.18;65.15;102310.50;4988872;28;45433;-77
2024/01/23 02:33:12;;;;;;;;;4.00;1.33;;;;;9.75;65.19;102245.16;4992990;28;45077;-78
2024/01/23 02:35:37;;;;;;;;;1.00;1.00;;;;;9.79;65.48;102240.50;4988792;28;45352;-77
2024/01/23 02:38:03;;;;;;;;;2.67;1.67;;;;;9.98;65.43;102287.94;4991457;28;45019;-77
2024/01/23 02:40:29;;;;;;;;;2.33;2.00;;;;;10.22;65.82;102334.19;4991696;28;45564;-79
2024/01/23 02:42:54;;;;;;;;;4.33;2.33;;;;;9.82;65.79;102245.63;4973139;28;45452;-78
2024/01/23 02:45:20;;;;;;;;;3.00;3.00;;;;;10.12;65.99;102297.66;5010361;28;45246;-79
2024/01/23 02:47:46;;;;;;;;;3.67;2.67;;;;;10.22;66.10;102317.38;5009833;28;45400;-79
2024/01/23 02:50:11;;;;;;;;;2.00;1.33;;;;;9.58;65.87;102210.91;5010549;28;45360;-79
2024/01/23 02:52:37;;;;;;;;;2.00;2.00;;;;;9.95;66.60;102286.34;5011619;28;45376;-79
2024/01/23 02:55:04;;;;;;;;;4.33;3.00;;;;;9.73;66.49;102267.47;5010893;28;46260;-81
2024/01/23 02:57:29;;;;;;;;;4.00;2.67;;;;;9.85;66.16;102277.28;5011671;28;44912;-79
2024/01/23 02:59:55;;;;;;;;;4.67;4.00;;;;;10.12;66.29;102322.41;5010926;28;45081;-80
2024/01/23 03:02:21;;;;;;;;;5.00;3.00;;;;;10.20;66.69;102343.16;5010255;28;45157;-79
2024/01/23 03:04:47;;;;;;;;;4.33;3.33;;;;;9.64;66.40;102241.53;5008971;28;46929;-79
2024/01/23 03:07:13;;;;;;;;;4.33;3.00;;;;;10.16;66.95;102339.00;4998010;28;45070;-79
2024/01/23 03:09:38;;;;;;;;;4.33;3.33;;;;;9.46;66.72;102227.66;4993782;28;45070;-81
2024/01/23 03:12:17;;;;;;;;;4.33;2.00;;;;;10.02;66.95;102335.47;4994233;28;44849;-82
2024/01/23 03:14:43;;;;;;;;;5.33;3.00;;;;;9.84;66.98;102301.28;4992868;28;45644;-81
2024/01/23 03:17:13;;;;;;;;;2.33;1.00;;;;;9.77;67.04;102280.44;4992069;28;45206;-80
2024/01/23 03:19:40;;;;;;;;;7.33;3.00;;;;;10.04;67.33;102332.72;4992314;28;45209;-82
2024/01/23 03:22:06;;;;;;;;;5.33;4.33;;;;;9.93;67.80;102327.25;4993071;28;45180;-79
2024/01/23 03:24:32;;;;;;;;;4.00;1.33;;;;;10.06;67.47;102347.59;5007915;28;46934;-78
2024/01/23 03:26:57;;;;;;;;;3.00;2.67;;;;;9.89;67.33;102310.66;5012634;28;44934;-79
2024/01/23 03:29:27;;;;;;;;;3.00;2.00;;;;;10.11;66.83;102341.13;5013079;28;44881;-79
2024/01/23 03:31:52;;;;;;;;;7.67;3.00;;;;;9.92;67.47;102315.75;4994758;28;45149;-79
2024/01/23 03:34:21;;;;;;;;;3.00;2.33;;;;;9.77;67.33;102300.81;5015265;28;45192;-77
2024/01/23 03:36:46;;;;;;;;;4.67;3.00;;;;;9.60;67.18;102277.19;5014840;28;44997;-78
2024/01/23 03:39:12;;;;;;;;;3.33;2.00;;;;;9.80;67.61;102305.09;4995284;28;45032;-79
2024/01/23 03:41:38;;;;;;;;;3.00;1.00;;;;;9.77;67.10;102298.16;5015632;28;45246;-80
2024/01/23 03:44:06;;;;;;;;;4.00;3.00;;;;;9.83;67.06;102313.72;5014105;28;45279;-79
2024/01/23 03:46:32;;;;;;;;;4.33;3.67;;;;;10.09;67.24;102358.97;5013284;28;45067;-77
2024/01/23 03:48:58;;;;;;;;;2.00;2.00;;;;;9.92;67.05;102336.16;4988033;28;45676;-78
2024/01/23 03:51:23;;;;;;;;;6.00;3.33;;;;;9.93;66.99;102330.75;5014297;28;45204;-79
2024/01/23 03:53:48;;;;;;;;;7.33;2.00;;;;;10.11;67.19;102363.22;5012580;28;45424;-79
2024/01/23 03:56:15;;;;;;;;;2.00;2.00;;;;;9.90;67.24;102344.25;5014495;28;44969;-78
2024/01/23 03:58:41;;;;;;;;;6.00;3.00;;;;;10.04;67.65;102384.06;5014787;28;44920;-81
2024/01/23 04:01:07;;;;;;;;;6.33;3.33;;;;;9.95;67.27;102362.53;4996862;28;45047;-80
2024/01/23 04:03:32;;;;;;;;;4.00;3.33;;;;;9.98;67.84;102386.25;5013856;28;45701;-80
2024/01/23 04:05:57;;;;;;;;;3.67;3.00;;;;;9.69;67.51;102335.00;5012970;28;45113;-79
2024/01/23 04:08:23;;;;;;;;;9.00;5.67;;;;;9.94;67.89;102388.25;5013599;28;45066;-80
2024/01/23 04:10:48;;;;;;;;;4.00;1.67;;;;;9.93;68.00;102388.34;5011659;28;45019;-81
2024/01/23 04:13:13;;;;;;;;;3.33;1.67;;;;;9.65;68.19;102346.78;5014623;28;45529;-80
2024/01/23 04:15:39;;;;;;;;;3.33;1.00;;;;;9.08;67.71;102243.41;5014804;28;45033;-79
2024/01/23 04:18:04;;;;;;;;;3.00;3.00;;;;;9.61;68.01;102345.25;4997816;28;45110;-83
2024/01/23 04:20:29;;;;;;;;;2.33;2.00;;;;;9.95;67.52;102411.19;5010695;28;45054;-80
2024/01/23 04:22:55;;;;;;;;;4.33;4.00;;;;;9.83;67.26;102379.28;4994431;28;46968;-80
2024/01/23 04:25:20;;;;;;;;;5.00;2.33;;;;;9.97;67.71;102398.66;5009815;28;45214;-82
2024/01/23 04:27:46;;;;;;;;;13.33;10.00;;;;;10.00;67.86;102403.78;5012359;28;45484;-80
2024/01/23 04:30:11;;;;;;;;;5.00;4.00;;;;;9.23;67.76;102263.66;5011572;28;45369;-81
2024/01/23 04:32:37;;;;;;;;;4.33;2.00;;;;;10.03;67.68;102406.25;5012674;28;45750;-80
2024/01/23 04:35:02;;;;;;;;;3.33;2.00;;;;;9.00;67.26;102216.50;5010730;28;45335;-81
2024/01/23 04:37:28;;;;;;;;;4.33;4.33;;;;;9.76;67.34;102363.72;5011499;28;45071;-83
2024/01/23 04:39:53;;;;;;;;;4.67;4.33;;;;;9.96;67.71;102399.63;4994045;28;45342;-83
2024/01/23 04:42:19;;;;;;;;;4.67;3.00;;;;;9.79;67.58;102378.59;4995471;28;46833;-82
2024/01/23 04:44:44;;;;;;;;;4.00;2.00;;;;;10.03;67.29;102414.22;5028705;28;45108;-86
2024/01/23 04:47:10;;;;;;;;;6.00;3.00;;;;;10.12;67.50;102433.19;5025840;28;44963;-87
2024/01/23 04:49:35;;;;;;;;;5.67;4.67;;;;;10.01;67.07;102420.56;5001935;28;45405;-88
2024/01/23 04:52:00;;;;;;;;;1.00;1.00;;;;;10.15;67.14;102443.59;5018175;28;45484;-80
2024/01/23 04:54:25;;;;;;;;;3.00;3.00;;;;;10.09;66.98;102439.56;5008182;28;45007;-83
2024/01/23 04:56:51;;;;;;;;;4.67;2.67;;;;;10.26;66.93;102454.44;5014333;28;45009;-82
2024/01/23 04:59:16;;;;;;;;;4.67;2.00;;;;;10.08;66.93;102432.53;5021545;28;45071;-86
2024/01/23 05:01:41;;;;;;;;;2.00;2.00;;;;;9.97;67.21;102433.22;4988773;28;47545;-87
2024/01/23 05:04:07;;;;;;;;;2.67;2.67;;;;;10.01;67.21;102440.06;5001448;28;45098;-86
2024/01/23 05:06:33;;;;;;;;;1.75;1.75;;;;;10.34;67.04;102484.03;4998977;28;45218;-87
2024/01/23 05:08:58;;;;;;;;;4.00;3.00;;;;;10.30;67.12;102474.53;5004419;28;45109;-84
2024/01/23 05:11:23;;;;;;;;;6.67;3.67;;;;;10.40;67.34;102472.97;5000059;28;45166;-87
2024/01/23 05:13:49;;;;;;;;;5.33;3.00;;;;;9.92;67.02;102403.44;4997782;28;45139;-84
2024/01/23 05:16:15;;;;;;;;;7.67;3.00;;;;;10.29;67.41;102462.22;4998878;28;45169;-87
2024/01/23 05:18:40;;;;;;;;;7.00;3.33;;;;;9.57;67.17;102335.78;4999556;28;45234;-91
2024/01/23 05:21:08;;;;;;;;;5.00;3.00;;;;;10.25;67.25;102461.56;5002074;28;45591;-86
2024/01/23 05:23:33;;;;;;;;;4.00;1.00;;;;;10.35;67.37;102481.25;5002551;28;44924;-85
2024/01/23 05:25:59;;;;;;;;;3.67;3.00;;;;;9.94;67.55;102420.13;4996492;28;45628;-84
2024/01/23 05:28:24;;;;;;;;;5.67;2.33;;;;;10.28;67.16;102469.31;4978351;28;45243;-86
2024/01/23 05:30:49;;;;;;;;;3.33;2.67;;;;;10.22;67.78;102466.22;5000162;28;47254;-84
2024/01/23 05:33:15;;;;;;;;;2.00;2.00;;;;;10.21;67.23;102469.81;5016460;28;44884;-82
2024/01/23 05:35:40;;;;;;;;;3.33;2.00;;;;;9.94;67.71;102440.53;5002109;28;45021;-89
2024/01/23 05:38:06;;;;;;;;;1.00;1.00;;;;;10.38;67.48;102513.91;5021472;28;45119;-85
2024/01/23 05:40:32;;;;;;;;;5.00;3.00;;;;;9.23;67.27;102322.03;4995776;28;47728;-80
2024/01/23 05:42:57;;;;;;;;;2.33;2.33;;;;;10.24;67.40;102481.13;4998306;28;45038;-79
2024/01/23 05:45:22;;;;;;;;;3.33;2.00;;;;;10.27;67.66;102491.56;4997038;28;45262;-80
2024/01/23 05:47:48;;;;;;;;;3.00;2.00;;;;;10.27;67.28;102490.69;4994347;28;45519;-77
2024/01/23 05:50:13;;;;;;;;;2.00;2.00;;;;;10.11;66.99;102468.69;4995820;28;45185;-77
2024/01/23 05:52:39;;;;;;;;;3.33;3.00;;;;;10.50;67.34;102539.72;4994554;28;45122;-76
2024/01/23 05:55:05;;;;;;;;;2.00;2.00;;;;;10.25;67.08;102503.25;4976524;28;45201;-77
2024/01/23 05:57:30;;;;;;;;;5.33;4.33;;;;;10.49;67.13;102538.88;4993887;28;45393;-83
2024/01/23 05:59:57;;;;;;;;;5.00;4.00;;;;;9.84;67.13;102434.13;4997653;28;44996;-84
2024/01/23 06:02:23;;;;;;;;;3.33;1.00;;;;;10.46;66.92;102549.72;5005938;28;44680;-80
2024/01/23 06:04:48;;;;;;;;;4.67;3.00;;;;;10.21;66.78;102507.91;5000727;28;45012;-78
2024/01/23 06:07:13;;;;;;;;;3.67;1.00;;;;;10.31;67.10;102527.63;5016082;28;45201;-82
2024/01/23 06:09:39;;;;;;;;;5.00;3.67;;;;;10.49;67.13;102562.81;4999838;28;46646;-81
2024/01/23 06:12:05;;;;;;;;;2.33;2.33;;;;;10.18;67.26;102512.50;5011342;28;45242;-86
2024/01/23 06:14:31;;;;;;;;;4.33;3.00;;;;;10.14;67.59;102511.00;4977032;28;45329;-84
2024/01/23 06:16:56;;;;;;;;;9.00;9.00;;;;;9.93;67.38;102474.22;4995704;28;45337;-83
2024/01/23 06:19:22;;;;;;;;;6.67;4.00;;;;;10.20;67.29;102518.56;5000176;28;45701;-81
2024/01/23 06:21:47;;;;;;;;;8.00;7.67;;;;;10.10;68.19;102504.19;4993998;28;45070;-85
2024/01/23 06:24:13;;;;;;;;;2.00;2.00;;;;;10.45;67.41;102558.63;4980601;28;45424;-85
2024/01/23 06:26:38;;;;;;;;;5.67;4.67;;;;;10.49;67.48;102556.63;4967213;28;45447;-85
2024/01/23 06:29:04;;;;;;;;;4.33;3.33;;;;;9.86;67.46;102449.00;4979944;28;45388;-83
2024/01/23 06:31:30;;;;;;;;;6.67;4.67;;;;;10.39;67.78;102550.19;4985158;28;45137;-83
2024/01/23 06:33:56;;;;;;;;;3.50;2.50;;;;;10.47;67.36;102556.72;4995834;28;45376;-83
2024/01/23 06:36:22;;;;;;;;;2.67;2.67;;;;;10.46;67.51;102544.38;5016595;28;45360;-83
2024/01/23 06:38:47;;;;;;;;;5.33;2.00;;;;;10.06;67.83;102484.94;5005514;28;46550;-83
2024/01/23 06:41:12;;;;;;;;;4.67;3.67;;;;;10.33;67.78;102530.16;4997165;28;44938;-86
2024/01/23 06:43:38;;;;;;;;;5.67;5.00;;;;;10.39;67.49;102547.53;4984470;28;45193;-84
2024/01/23 06:46:03;;;;;;;;;5.67;2.67;;;;;10.40;68.03;102544.75;4999173;28;44962;-80
2024/01/23 06:48:30;;;;;;;;;6.67;3.00;;;;;9.94;67.95;102467.09;4998686;28;47011;-82
2024/01/23 06:50:55;;;;;;;;;7.67;5.67;;;;;10.38;68.03;102549.34;4999454;28;44928;-83
2024/01/23 06:53:21;;;;;;;;;5.33;3.00;;;;;9.81;67.99;102456.41;4999104;28;44951;-82
2024/01/23 06:55:47;;;;;;;;;6.00;5.00;;;;;10.38;68.12;102565.28;5006459;28;44838;-84
2024/01/23 06:58:13;;;;;;;;;5.67;4.67;;;;;10.34;68.51;102550.47;5017158;28;47685;-82
2024/01/23 07:00:38;;;;;;;;;8.67;5.67;;;;;10.38;68.31;102557.31;5013011;28;45369;-87
2024/01/23 07:03:05;;;;;;;;;3.33;1.67;;;;;9.77;68.40;102490.25;5021051;28;45111;-85
2024/01/23 07:05:31;;;;;;;;;5.33;4.00;;;;;9.69;68.89;102463.34;5024299;28;44796;-86
2024/01/23 07:07:56;;;;;;;;;2.67;2.67;;;;;10.20;68.65;102553.13;4994065;28;46742;-86
2024/01/23 07:10:22;;;;;;;;;4.00;3.00;;;;;10.21;69.03;102546.88;4982720;28;45425;-86
2024/01/23 07:12:47;;;;;;;;;6.00;5.67;;;;;9.77;68.50;102490.25;4985861;28;45900;-84
2024/01/23 07:15:13;;;;;;;;;2.00;2.00;;;;;10.09;69.17;102547.66;5013777;28;45596;-85
2024/01/23 07:17:38;;;;;;;;;4.33;2.00;;;;;9.21;69.42;102416.81;5002476;28;45791;-84
2024/01/23 07:20:05;;;;;;;;;7.33;5.00;;;;;10.11;69.36;102559.91;5012039;28;44735;-81
2024/01/23 07:22:31;;;;;;;;;6.67;4.67;;;;;9.41;69.20;102453.59;5004838;28;45308;-81
2024/01/23 07:25:01;;;;;;;;;7.00;3.00;;;;;10.29;69.11;102603.09;5006101;28;45279;-82
2024/01/23 07:27:26;;;;;;;;;5.00;4.33;;;;;10.31;69.68;102595.88;4969837;28;46989;-83
2024/01/23 07:29:51;;;;;;;;;4.33;4.00;;;;;9.76;69.05;102509.81;4977023;28;45436;-85
2024/01/23 07:32:17;;;;;;;;;4.67;3.33;;;;;10.00;69.15;102544.59;4960096;28;45865;-83
2024/01/23 07:34:42;;;;;;;;;2.00;2.00;;;;;10.40;69.27;102597.09;4977568;28;45356;-82
2024/01/23 07:37:08;;;;;;;;;4.67;3.33;;;;;10.23;69.13;102567.13;4975359;28;46829;-84
2024/01/23 07:39:33;;;;;;;;;3.00;3.00;;;;;10.26;69.33;102556.31;4959301;28;45369;-81
2024/01/23 07:41:58;;;;;;;;;8.00;5.00;;;;;9.17;68.56;102369.31;4961840;28;45679;-82
2024/01/23 07:44:24;;;;;;;;;4.00;3.67;;;;;9.48;68.56;102408.06;4996221;28;45469;-83
2024/01/23 07:46:49;;;;;;;;;5.00;3.33;;;;;10.10;68.63;102504.19;4996771;28;46065;-82
2024/01/23 07:49:15;;;;;;;;;4.33;3.00;;;;;10.26;68.58;102532.38;4997161;28;45564;-82
2024/01/23 07:51:48;;;;;;;;;7.33;5.67;;;;;10.68;68.55;102590.88;4996688;28;45215;-82
2024/01/23 07:54:13;;;;;;;;;4.00;3.00;;;;;10.70;68.82;102604.91;4996061;28;45306;-82
2024/01/23 07:56:39;;;;;;;;;9.33;5.67;;;;;10.70;68.79;102602.25;4995547;28;46020;-83
2024/01/23 07:59:05;;;;;;;;;6.00;4.00;;;;;10.56;68.87;102587.19;4996858;28;45621;-82
2024/01/23 08:01:30;;;;;;;;;9.00;5.67;;;;;10.66;68.92;102639.72;4996176;28;45333;-83
2024/01/23 08:03:57;;;;;;;;;4.67;3.00;;;;;10.56;68.92;102609.31;4996811;28;45749;-83
2024/01/23 08:06:26;;;;;;;;;3.00;3.00;;;;;10.63;69.49;102637.25;4996898;28;45574;-84
2024/01/23 08:08:51;;;;;;;;;10.33;5.33;;;;;10.60;69.49;102618.78;4995841;28;45529;-83
2024/01/23 08:11:17;;;;;;;;;6.00;6.00;;;;;9.92;69.58;102512.38;4997953;28;45404;-82
2024/01/23 08:13:43;;;;;;;;;7.33;7.00;;;;;10.63;69.23;102642.56;4993621;28;45377;-83
2024/01/23 08:16:09;;;;;;;;;4.33;4.00;;;;;10.68;69.48;102628.13;4964165;28;45475;-82
2024/01/23 08:18:36;;;;;;;;;10.00;5.33;;;;;10.55;69.60;102620.91;4966189;28;45334;-86
2024/01/23 08:21:02;;;;;;;;;5.00;3.33;;;;;10.51;69.50;102603.44;4967303;28;44721;-82
2024/01/23 08:23:27;;;;;;;;;7.00;3.67;;;;;9.39;69.26;102402.38;4982761;28;45307;-85
2024/01/23 08:25:53;;;;;;;;;2.33;2.33;;;;;10.15;69.21;102540.13;4980412;28;46146;-84
2024/01/23 08:28:18;;;;;;;;;9.00;3.33;;;;;9.59;68.94;102434.78;4980309;28;45312;-85
2024/01/23 08:30:44;;;;;;;;;6.00;4.00;;;;;10.62;68.89;102605.44;4980548;28;45390;-83
2024/01/23 08:33:12;;;;;;;;;4.67;2.33;;;;;9.30;69.01;102375.56;4983840;28;45363;-83
2024/01/23 08:35:38;;;;;;;;;8.33;6.00;;;;;10.20;69.07;102527.41;4965639;28;47414;-86
2024/01/23 08:38:03;;;;;;;;;6.00;4.67;;;;;10.49;69.32;102575.25;4986946;28;45554;-86
2024/01/23 08:40:28;;;;;;;;;6.33;4.67;;;;;10.50;68.76;102567.16;4997474;28;44802;-86
2024/01/23 08:42:54;;;;;;;;;9.00;6.00;;;;;10.95;69.38;102636.94;4984708;28;45469;-84
2024/01/23 08:45:19;;;;;;;;;5.00;4.00;;;;;9.45;68.64;102395.84;4967328;28;45290;-85
2024/01/23 08:47:45;;;;;;;;;7.33;5.00;;;;;10.65;68.90;102608.75;4962511;28;45437;-86
2024/01/23 08:50:10;;;;;;;;;6.00;4.00;;;;;9.01;69.15;102317.22;4974013;28;45485;-82
2024/01/23 08:52:35;;;;;;;;;6.00;5.00;;;;;11.01;69.19;102641.88;4986180;28;45581;-82
2024/01/23 08:55:01;;;;;;;;;6.00;5.00;;;;;11.07;69.15;102645.97;4993527;28;46248;-82
2024/01/23 08:57:26;;;;;;;;;5.33;4.33;;;;;10.31;68.74;102508.16;4999846;28;45403;-79
2024/01/23 08:59:52;;;;;;;;;6.33;3.67;;;;;11.21;68.64;102644.09;4980770;28;45400;-83
2024/01/23 09:02:17;;;;;;;;;4.67;3.00;;;;;11.27;68.63;102638.34;4961204;28;45310;-83
2024/01/23 09:04:43;;;;;;;;;8.00;5.00;;;;;11.04;68.52;102583.13;4968469;28;46996;-82
2024/01/23 09:07:08;;;;;;;;;5.33;5.00;;;;;11.30;68.15;102637.28;4981903;28;45343;-84
2024/01/23 09:09:33;;;;;;;;;4.67;4.33;;;;;10.39;67.99;102476.59;4975255;28;45333;-84
2024/01/23 09:11:59;;;;;;;;;6.67;5.00;;;;;11.17;68.08;102615.94;4962165;28;45413;-82
2024/01/23 09:14:26;;;;;;;;;7.00;5.33;;;;;11.38;67.96;102636.78;4964285;28;46677;-82
2024/01/23 09:16:52;;;;;;;;;11.00;4.33;;;;;11.04;67.92;102580.47;4965736;28;45296;-85
2024/01/23 09:19:17;;;;;;;;;7.00;4.33;;;;;11.44;68.30;102631.06;4968287;28;45262;-84
2024/01/23 09:21:43;;;;;;;;;6.00;6.00;;;;;11.11;67.76;102575.59;4966694;28;45273;-87
2024/01/23 09:24:08;;;;;;;;;7.67;4.33;;;;;10.90;67.34;102517.50;4949906;28;45099;-85
2024/01/23 09:26:34;;;;;;;;;5.00;3.67;;;;;11.54;67.66;102608.16;4983876;28;45476;-86
2024/01/23 09:29:00;;;;;;;;;4.33;4.00;;;;;11.24;67.04;102566.69;4984963;28;45241;-84
2024/01/23 09:31:25;;;;;;;;;6.00;5.00;;;;;11.81;66.99;102634.72;5000762;28;45380;-87
2024/01/23 09:33:51;;;;;;;;;8.33;6.00;;;;;11.90;66.55;102627.94;4984268;28;46668;-83
2024/01/23 09:36:16;;;;;;;;;5.33;4.00;;;;;11.65;66.63;102580.78;4961552;28;45595;-86
2024/01/23 09:38:41;;;;;;;;;7.33;5.67;;;;;11.95;66.51;102612.47;4965778;28;45256;-83
2024/01/23 09:41:12;;;;;;;;;6.33;4.00;;;;;11.75;66.45;102580.03;4986677;28;45264;-86
2024/01/23 09:43:43;;;;;;;;;4.00;3.00;;;;;11.26;66.19;102484.88;4988541;28;46102;-84
2024/01/23 09:46:12;;;;;;;;;6.00;5.67;;;;;11.78;65.84;102561.19;4985107;28;45293;-83
2024/01/23 09:48:39;;;;;;;;;3.67;3.67;;;;;12.21;66.12;102626.63;4987531;28;45341;-83
2024/01/23 09:51:12;;;;;;;;;5.33;5.33;;;;;12.06;65.67;102596.56;4968074;28;45446;-85
2024/01/23 09:53:41;;;;;;;;;6.00;6.00;;;;;12.02;65.46;102593.28;4966339;28;45380;-84
2024/01/23 09:56:08;;;;;;;;;8.00;6.00;;;;;12.17;65.39;102623.31;5007149;28;45285;-84
2024/01/23 09:58:36;;;;;;;;;8.67;7.00;;;;;11.94;65.93;102595.63;5018623;28;45284;-85
2024/01/23 10:01:02;;;;;;;;;6.33;4.00;;;;;11.14;65.92;102452.91;4976924;28;44931;-86
2024/01/23 10:03:31;;;;;;;;;4.00;2.00;;;;;12.07;66.40;102607.13;4963256;28;46716;-83
2024/01/23 10:05:59;;;;;;;;;5.67;4.33;;;;;12.13;66.10;102612.03;4962781;28;45317;-85
2024/01/23 10:08:25;;;;;;;;;6.00;4.00;;;;;11.96;66.43;102568.84;4969226;28;45533;-83
2024/01/23 10:10:58;;;;;;;;;7.67;6.33;;;;;12.19;66.01;102616.91;4964237;28;45379;-86
2024/01/23 10:13:24;;;;;;;;;5.33;4.00;;;;;12.15;65.88;102609.25;4961728;28;45720;-83
2024/01/23 10:15:53;;;;;;;;;8.67;6.00;;;;;12.12;66.60;102609.47;4963467;28;45455;-87
2024/01/23 10:18:19;;;;;;;;;6.67;4.00;;;;;11.61;66.50;102524.19;4927469;28;45531;-86
2024/01/23 10:20:46;;;;;;;;;7.33;6.00;;;;;11.97;66.51;102594.53;4973477;28;45533;-85
2024/01/23 10:23:11;;;;;;;;;7.00;6.00;;;;;11.96;67.17;102599.03;4979340;28;47025;-84
2024/01/23 10:25:39;;;;;;;;;11.33;7.00;;;;;11.98;66.99;102601.56;4987347;28;45483;-85
2024/01/23 10:28:08;;;;;;;;;8.00;4.33;;;;;11.97;67.01;102602.53;4998562;28;45663;-84
2024/01/23 10:30:36;;;;;;;;;9.67;6.00;;;;;11.33;67.42;102503.09;4957414;28;46044;-84
2024/01/23 10:33:03;;;;;;;;;4.33;3.67;;;;;11.46;67.29;102514.59;4958084;28;47161;-86
2024/01/23 10:35:31;;;;;;;;;6.00;3.67;;;;;11.95;67.76;102599.13;4957986;28;45393;-85
2024/01/23 10:37:57;;;;;;;;;6.00;5.00;;;;;11.82;67.83;102577.84;4941621;28;45445;-86
2024/01/23 10:40:23;;;;;;;;;8.00;4.67;;;;;11.31;67.96;102507.66;4968719;28;45492;-85
2024/01/23 10:42:49;;;;;;;;;7.00;4.33;;;;;10.61;67.98;102386.47;4979010;28;45628;-85
2024/01/23 10:45:18;;;;;;;;;13.67;11.00;;;;;11.23;68.74;102514.38;4980130;28;45357;-84
2024/01/23 10:47:45;;;;;;;;;7.33;5.00;;;;;11.55;68.96;102584.06;4980395;28;45337;-84
2024/01/23 10:50:11;;;;;;;;;8.33;5.67;;;;;10.83;69.03;102468.34;4994929;28;45403;-84
2024/01/23 10:52:39;;;;;;;;;5.67;5.67;;;;;11.48;69.20;102571.28;4979900;28;45935;-86
2024/01/23 10:55:06;;;;;;;;;11.33;7.00;;;;;11.66;69.46;102580.69;4984456;28;45529;-83
2024/01/23 10:57:36;;;;;;;;;9.33;7.67;;;;;11.50;69.85;102545.41;4976986;28;45823;-83
2024/01/23 11:00:11;;;;;;;;;8.33;5.00;;;;;11.47;70.29;102517.16;4989588;28;45959;-87
2024/01/23 11:02:40;;;;;;;;;10.00;7.67;;;;;11.48;70.64;102524.19;4959734;28;45948;-86
2024/01/23 11:05:07;;;;;;;;;9.00;7.33;;;;;11.71;70.55;102557.22;4942864;28;45480;-86
2024/01/23 11:07:42;;;;;;;;;8.00;6.00;;;;;11.72;70.93;102566.91;4942312;28;45775;-85
2024/01/23 11:10:27;;;;;;;;;8.67;5.67;;;;;11.71;71.32;102562.56;4946629;28;45411;-86
2024/01/23 11:13:28;;;;;;;;;15.67;13.33;;;;;11.64;71.47;102581.75;4982333;28;45480;-83
2024/01/23 11:15:53;;;;;;;;;8.33;7.00;;;;;11.24;72.06;102489.47;4989007;28;45467;-83
2024/01/23 11:18:31;;;;;;;;;12.00;10.33;;;;;11.39;71.80;102476.88;5005145;28;44830;-84
2024/01/23 11:21:05;;;;;;;;;10.33;7.67;;;;;11.69;72.20;102513.00;4972242;28;45420;-84